sensor_id;sensor_type;location;lat;lon;timestamp;P1;durP1;ratioP1;P2;durP2;ratioP2
19509;SDS011;9896;42.486;26.506;2022-08-19T00:00:10;18.47;;;12.60;;
19509;SDS011;9896;42.486;26.506;2022-08-19T00:02:38;17.77;;;12.53;;
19509;SDS011;9896;42.486;26.506;2022-08-19T00:05:04;14.93;;;12.10;;
19509;SDS011;9896;42.486;26.506;2022-08-19T00:07:30;15.43;;;12.70;;
19509;SDS011;9896;42.486;26.506;2022-08-19T00:09:56;17.23;;;13.27;;
19509;SDS011;9896;42.486;26.506;2022-08-19T00:12:21;17.40;;;13.20;;
19509;SDS011;9896;42.486;26.506;2022-08-19T00:14:47;17.90;;;13.70;;
19509;SDS011;9896;42.486;26.506;2022-08-19T00:17:12;16.57;;;13.33;;
19509;SDS011;9896;42.486;26.506;2022-08-19T00:19:38;19.90;;;12.83;;
19509;SDS011;9896;42.486;26.506;2022-08-19T00:22:04;20.07;;;13.03;;
19509;SDS011;9896;42.486;26.506;2022-08-19T00:24:30;17.17;;;12.90;;
19509;SDS011;9896;42.486;26.506;2022-08-19T00:26:56;17.87;;;12.87;;
19509;SDS011;9896;42.486;26.506;2022-08-19T00:29:23;17.13;;;13.07;;
19509;SDS011;9896;42.486;26.506;2022-08-19T00:31:49;15.47;;;12.43;;
19509;SDS011;9896;42.486;26.506;2022-08-19T00:34:18;20.47;;;13.33;;
19509;SDS011;9896;42.486;26.506;2022-08-19T00:36:44;16.47;;;13.03;;
19509;SDS011;9896;42.486;26.506;2022-08-19T00:39:11;15.43;;;12.90;;
19509;SDS011;9896;42.486;26.506;2022-08-19T00:41:37;18.50;;;13.53;;
19509;SDS011;9896;42.486;26.506;2022-08-19T00:44:05;17.37;;;13.43;;
19509;SDS011;9896;42.486;26.506;2022-08-19T00:46:37;16.10;;;13.50;;
19509;SDS011;9896;42.486;26.506;2022-08-19T00:51:55;22.23;;;13.53;;
19509;SDS011;9896;42.486;26.506;2022-08-19T00:54:28;18.60;;;13.50;;
19509;SDS011;9896;42.486;26.506;2022-08-19T00:56:56;17.83;;;13.30;;
19509;SDS011;9896;42.486;26.506;2022-08-19T00:59:23;15.30;;;12.67;;
19509;SDS011;9896;42.486;26.506;2022-08-19T01:01:48;16.13;;;12.97;;
19509;SDS011;9896;42.486;26.506;2022-08-19T01:04:14;17.70;;;13.17;;
19509;SDS011;9896;42.486;26.506;2022-08-19T01:06:40;16.90;;;12.47;;
19509;SDS011;9896;42.486;26.506;2022-08-19T01:09:08;15.93;;;12.67;;
19509;SDS011;9896;42.486;26.506;2022-08-19T01:11:34;15.10;;;12.50;;
19509;SDS011;9896;42.486;26.506;2022-08-19T01:14:03;13.63;;;11.60;;
19509;SDS011;9896;42.486;26.506;2022-08-19T01:16:30;18.27;;;13.00;;
19509;SDS011;9896;42.486;26.506;2022-08-19T01:18:58;17.87;;;13.00;;
19509;SDS011;9896;42.486;26.506;2022-08-19T01:21:34;14.55;;;12.02;;
19509;SDS011;9896;42.486;26.506;2022-08-19T01:24:05;14.50;;;12.30;;
19509;SDS011;9896;42.486;26.506;2022-08-19T01:26:31;17.17;;;13.03;;
19509;SDS011;9896;42.486;26.506;2022-08-19T01:29:04;17.50;;;12.93;;
19509;SDS011;9896;42.486;26.506;2022-08-19T01:31:33;20.23;;;13.77;;
19509;SDS011;9896;42.486;26.506;2022-08-19T01:33:58;13.87;;;12.33;;
19509;SDS011;9896;42.486;26.506;2022-08-19T01:36:36;18.17;;;13.23;;
19509;SDS011;9896;42.486;26.506;2022-08-19T01:39:08;17.60;;;13.37;;
19509;SDS011;9896;42.486;26.506;2022-08-19T01:41:36;18.13;;;13.97;;
19509;SDS011;9896;42.486;26.506;2022-08-19T01:44:02;20.90;;;14.07;;
19509;SDS011;9896;42.486;26.506;2022-08-19T01:46:29;22.70;;;14.77;;
19509;SDS011;9896;42.486;26.506;2022-08-19T01:48:55;17.73;;;14.03;;
19509;SDS011;9896;42.486;26.506;2022-08-19T01:51:21;18.70;;;13.60;;
19509;SDS011;9896;42.486;26.506;2022-08-19T01:53:48;18.93;;;14.93;;
19509;SDS011;9896;42.486;26.506;2022-08-19T01:56:14;18.77;;;14.47;;
19509;SDS011;9896;42.486;26.506;2022-08-19T01:58:42;19.40;;;14.67;;
19509;SDS011;9896;42.486;26.506;2022-08-19T02:01:12;21.97;;;15.17;;
19509;SDS011;9896;42.486;26.506;2022-08-19T02:03:38;21.93;;;14.70;;
19509;SDS011;9896;42.486;26.506;2022-08-19T02:06:04;18.67;;;15.43;;
19509;SDS011;9896;42.486;26.506;2022-08-19T02:08:31;25.70;;;17.47;;
19509;SDS011;9896;42.486;26.506;2022-08-19T02:10:59;23.60;;;19.97;;
19509;SDS011;9896;42.486;26.506;2022-08-19T02:13:25;25.57;;;19.30;;
19509;SDS011;9896;42.486;26.506;2022-08-19T02:15:51;23.10;;;16.87;;
19509;SDS011;9896;42.486;26.506;2022-08-19T02:18:17;20.60;;;16.43;;
19509;SDS011;9896;42.486;26.506;2022-08-19T02:20:43;20.03;;;15.77;;
19509;SDS011;9896;42.486;26.506;2022-08-19T02:23:09;25.93;;;17.13;;
19509;SDS011;9896;42.486;26.506;2022-08-19T02:25:37;24.30;;;16.10;;
19509;SDS011;9896;42.486;26.506;2022-08-19T02:28:04;20.00;;;14.63;;
19509;SDS011;9896;42.486;26.506;2022-08-19T02:30:31;16.30;;;13.07;;
19509;SDS011;9896;42.486;26.506;2022-08-19T02:32:56;26.50;;;15.57;;
19509;SDS011;9896;42.486;26.506;2022-08-19T02:35:23;21.83;;;15.57;;
19509;SDS011;9896;42.486;26.506;2022-08-19T02:37:48;22.97;;;15.13;;
19509;SDS011;9896;42.486;26.506;2022-08-19T02:40:33;20.20;;;15.57;;
19509;SDS011;9896;42.486;26.506;2022-08-19T02:42:59;21.70;;;15.50;;
19509;SDS011;9896;42.486;26.506;2022-08-19T02:45:34;22.30;;;16.40;;
19509;SDS011;9896;42.486;26.506;2022-08-19T02:48:02;23.73;;;17.27;;
19509;SDS011;9896;42.486;26.506;2022-08-19T02:50:28;20.17;;;15.57;;
19509;SDS011;9896;42.486;26.506;2022-08-19T02:52:54;19.97;;;16.00;;
19509;SDS011;9896;42.486;26.506;2022-08-19T02:55:19;19.67;;;15.30;;
19509;SDS011;9896;42.486;26.506;2022-08-19T02:57:45;18.93;;;14.90;;
19509;SDS011;9896;42.486;26.506;2022-08-19T03:00:11;22.03;;;15.90;;
19509;SDS011;9896;42.486;26.506;2022-08-19T03:02:38;20.37;;;15.33;;
19509;SDS011;9896;42.486;26.506;2022-08-19T03:05:06;19.03;;;15.10;;
19509;SDS011;9896;42.486;26.506;2022-08-19T03:07:34;22.80;;;15.20;;
19509;SDS011;9896;42.486;26.506;2022-08-19T03:10:00;20.43;;;15.93;;
19509;SDS011;9896;42.486;26.506;2022-08-19T03:12:26;20.90;;;15.53;;
19509;SDS011;9896;42.486;26.506;2022-08-19T03:14:52;27.30;;;15.20;;
19509;SDS011;9896;42.486;26.506;2022-08-19T03:17:18;19.77;;;14.87;;
19509;SDS011;9896;42.486;26.506;2022-08-19T03:19:43;22.87;;;14.63;;
19509;SDS011;9896;42.486;26.506;2022-08-19T03:22:09;23.83;;;15.03;;
19509;SDS011;9896;42.486;26.506;2022-08-19T03:24:34;17.47;;;14.43;;
19509;SDS011;9896;42.486;26.506;2022-08-19T03:27:00;19.90;;;14.57;;
19509;SDS011;9896;42.486;26.506;2022-08-19T03:29:26;23.57;;;14.30;;
19509;SDS011;9896;42.486;26.506;2022-08-19T03:31:53;18.17;;;14.50;;
19509;SDS011;9896;42.486;26.506;2022-08-19T03:34:23;17.63;;;15.10;;
19509;SDS011;9896;42.486;26.506;2022-08-19T03:36:51;21.63;;;15.00;;
19509;SDS011;9896;42.486;26.506;2022-08-19T03:39:19;22.00;;;15.00;;
19509;SDS011;9896;42.486;26.506;2022-08-19T03:41:45;20.83;;;14.27;;
19509;SDS011;9896;42.486;26.506;2022-08-19T03:44:13;21.77;;;15.50;;
19509;SDS011;9896;42.486;26.506;2022-08-19T03:46:39;20.93;;;15.43;;
19509;SDS011;9896;42.486;26.506;2022-08-19T03:49:05;24.83;;;15.90;;
19509;SDS011;9896;42.486;26.506;2022-08-19T03:51:34;21.17;;;14.93;;
19509;SDS011;9896;42.486;26.506;2022-08-19T03:54:03;22.47;;;15.50;;
19509;SDS011;9896;42.486;26.506;2022-08-19T03:56:34;21.77;;;15.27;;
19509;SDS011;9896;42.486;26.506;2022-08-19T03:59:01;20.33;;;13.97;;
19509;SDS011;9896;42.486;26.506;2022-08-19T04:01:29;18.57;;;13.97;;
19509;SDS011;9896;42.486;26.506;2022-08-19T04:03:58;18.20;;;14.37;;
19509;SDS011;9896;42.486;26.506;2022-08-19T04:06:26;18.10;;;14.17;;
19509;SDS011;9896;42.486;26.506;2022-08-19T04:08:55;18.37;;;14.87;;
19509;SDS011;9896;42.486;26.506;2022-08-19T04:11:27;19.93;;;14.30;;
19509;SDS011;9896;42.486;26.506;2022-08-19T04:13:55;21.43;;;14.70;;
19509;SDS011;9896;42.486;26.506;2022-08-19T04:16:22;20.60;;;14.67;;
19509;SDS011;9896;42.486;26.506;2022-08-19T04:18:49;18.07;;;14.73;;
19509;SDS011;9896;42.486;26.506;2022-08-19T04:21:20;20.37;;;15.03;;
19509;SDS011;9896;42.486;26.506;2022-08-19T04:23:48;16.60;;;14.50;;
19509;SDS011;9896;42.486;26.506;2022-08-19T04:26:15;20.00;;;15.47;;
19509;SDS011;9896;42.486;26.506;2022-08-19T04:28:43;24.77;;;14.83;;
19509;SDS011;9896;42.486;26.506;2022-08-19T04:31:13;21.23;;;14.97;;
19509;SDS011;9896;42.486;26.506;2022-08-19T04:33:41;22.10;;;15.63;;
19509;SDS011;9896;42.486;26.506;2022-08-19T04:36:07;21.67;;;14.63;;
19509;SDS011;9896;42.486;26.506;2022-08-19T04:38:35;21.13;;;13.63;;
19509;SDS011;9896;42.486;26.506;2022-08-19T04:41:02;23.17;;;14.40;;
19509;SDS011;9896;42.486;26.506;2022-08-19T04:43:46;17.37;;;14.40;;
19509;SDS011;9896;42.486;26.506;2022-08-19T04:46:15;24.23;;;16.13;;
19509;SDS011;9896;42.486;26.506;2022-08-19T04:48:42;20.17;;;15.03;;
19509;SDS011;9896;42.486;26.506;2022-08-19T04:51:11;24.73;;;15.67;;
19509;SDS011;9896;42.486;26.506;2022-08-19T04:53:38;16.33;;;13.17;;
19509;SDS011;9896;42.486;26.506;2022-08-19T04:56:12;20.97;;;14.53;;
19509;SDS011;9896;42.486;26.506;2022-08-19T04:58:40;21.00;;;16.00;;
19509;SDS011;9896;42.486;26.506;2022-08-19T05:01:08;21.33;;;16.60;;
19509;SDS011;9896;42.486;26.506;2022-08-19T05:03:36;22.87;;;15.97;;
19509;SDS011;9896;42.486;26.506;2022-08-19T05:06:07;22.57;;;16.90;;
19509;SDS011;9896;42.486;26.506;2022-08-19T05:08:36;21.20;;;16.10;;
19509;SDS011;9896;42.486;26.506;2022-08-19T05:11:12;20.53;;;14.90;;
19509;SDS011;9896;42.486;26.506;2022-08-19T05:13:43;21.63;;;15.37;;
19509;SDS011;9896;42.486;26.506;2022-08-19T05:16:10;19.47;;;15.10;;
19509;SDS011;9896;42.486;26.506;2022-08-19T05:18:37;23.37;;;16.23;;
19509;SDS011;9896;42.486;26.506;2022-08-19T05:21:21;20.17;;;14.30;;
19509;SDS011;9896;42.486;26.506;2022-08-19T05:24:06;20.73;;;13.80;;
19509;SDS011;9896;42.486;26.506;2022-08-19T05:26:34;17.73;;;15.07;;
19509;SDS011;9896;42.486;26.506;2022-08-19T05:29:01;20.37;;;15.17;;
19509;SDS011;9896;42.486;26.506;2022-08-19T05:31:29;21.90;;;13.43;;
19509;SDS011;9896;42.486;26.506;2022-08-19T05:33:55;18.73;;;13.17;;
19509;SDS011;9896;42.486;26.506;2022-08-19T05:36:23;21.77;;;14.70;;
19509;SDS011;9896;42.486;26.506;2022-08-19T05:38:49;23.98;;;14.57;;
19509;SDS011;9896;42.486;26.506;2022-08-19T05:41:15;28.60;;;15.77;;
19509;SDS011;9896;42.486;26.506;2022-08-19T05:43:42;19.55;;;13.52;;
19509;SDS011;9896;42.486;26.506;2022-08-19T05:46:07;23.13;;;13.03;;
19509;SDS011;9896;42.486;26.506;2022-08-19T05:48:34;14.75;;;10.93;;
19509;SDS011;9896;42.486;26.506;2022-08-19T05:51:03;15.55;;;11.73;;
19509;SDS011;9896;42.486;26.506;2022-08-19T05:53:31;22.45;;;11.43;;
19509;SDS011;9896;42.486;26.506;2022-08-19T05:56:02;15.80;;;12.13;;
19509;SDS011;9896;42.486;26.506;2022-08-19T05:58:31;17.10;;;12.20;;
19509;SDS011;9896;42.486;26.506;2022-08-19T06:00:58;14.52;;;11.52;;
19509;SDS011;9896;42.486;26.506;2022-08-19T06:03:29;15.07;;;11.85;;
19509;SDS011;9896;42.486;26.506;2022-08-19T06:05:58;16.67;;;11.25;;
19509;SDS011;9896;42.486;26.506;2022-08-19T06:08:25;20.27;;;11.73;;
19509;SDS011;9896;42.486;26.506;2022-08-19T06:10:52;15.40;;;10.98;;
19509;SDS011;9896;42.486;26.506;2022-08-19T06:13:18;14.55;;;10.85;;
19509;SDS011;9896;42.486;26.506;2022-08-19T06:15:44;17.02;;;11.57;;
19509;SDS011;9896;42.486;26.506;2022-08-19T06:18:12;17.30;;;11.95;;
19509;SDS011;9896;42.486;26.506;2022-08-19T06:20:39;16.48;;;10.68;;
19509;SDS011;9896;42.486;26.506;2022-08-19T06:23:05;15.40;;;11.30;;
19509;SDS011;9896;42.486;26.506;2022-08-19T06:25:30;13.85;;;11.23;;
19509;SDS011;9896;42.486;26.506;2022-08-19T06:27:56;14.60;;;11.70;;
19509;SDS011;9896;42.486;26.506;2022-08-19T06:30:22;14.57;;;10.02;;
19509;SDS011;9896;42.486;26.506;2022-08-19T06:32:48;18.55;;;10.43;;
19509;SDS011;9896;42.486;26.506;2022-08-19T06:35:13;13.90;;;10.13;;
19509;SDS011;9896;42.486;26.506;2022-08-19T06:37:39;12.20;;;8.95;;
19509;SDS011;9896;42.486;26.506;2022-08-19T06:40:06;12.75;;;9.15;;
19509;SDS011;9896;42.486;26.506;2022-08-19T06:42:33;14.50;;;8.80;;
19509;SDS011;9896;42.486;26.506;2022-08-19T06:44:59;15.82;;;9.13;;
19509;SDS011;9896;42.486;26.506;2022-08-19T06:47:28;14.73;;;9.57;;
19509;SDS011;9896;42.486;26.506;2022-08-19T06:49:55;10.18;;;7.55;;
19509;SDS011;9896;42.486;26.506;2022-08-19T06:52:25;12.15;;;7.85;;
19509;SDS011;9896;42.486;26.506;2022-08-19T06:54:50;11.82;;;7.70;;
19509;SDS011;9896;42.486;26.506;2022-08-19T06:57:16;14.20;;;7.90;;
19509;SDS011;9896;42.486;26.506;2022-08-19T06:59:42;12.50;;;8.15;;
19509;SDS011;9896;42.486;26.506;2022-08-19T07:02:07;11.15;;;7.35;;
19509;SDS011;9896;42.486;26.506;2022-08-19T07:04:33;14.77;;;8.07;;
19509;SDS011;9896;42.486;26.506;2022-08-19T07:07:02;12.20;;;8.00;;
19509;SDS011;9896;42.486;26.506;2022-08-19T07:09:39;12.80;;;7.93;;
19509;SDS011;9896;42.486;26.506;2022-08-19T07:12:07;13.90;;;7.78;;
19509;SDS011;9896;42.486;26.506;2022-08-19T07:14:34;12.35;;;7.80;;
19509;SDS011;9896;42.486;26.506;2022-08-19T07:17:05;13.88;;;8.48;;
19509;SDS011;9896;42.486;26.506;2022-08-19T07:19:33;16.13;;;9.07;;
19509;SDS011;9896;42.486;26.506;2022-08-19T07:22:03;10.85;;;7.75;;
19509;SDS011;9896;42.486;26.506;2022-08-19T07:24:30;11.60;;;7.90;;
19509;SDS011;9896;42.486;26.506;2022-08-19T07:26:57;9.52;;;7.40;;
19509;SDS011;9896;42.486;26.506;2022-08-19T07:29:28;8.73;;;7.70;;
19509;SDS011;9896;42.486;26.506;2022-08-19T07:31:55;7.93;;;7.00;;
19509;SDS011;9896;42.486;26.506;2022-08-19T07:34:23;10.13;;;7.60;;
19509;SDS011;9896;42.486;26.506;2022-08-19T07:36:50;10.80;;;8.00;;
19509;SDS011;9896;42.486;26.506;2022-08-19T07:39:17;8.95;;;6.85;;
19509;SDS011;9896;42.486;26.506;2022-08-19T07:41:45;11.23;;;7.47;;
19509;SDS011;9896;42.486;26.506;2022-08-19T07:44:11;11.77;;;8.02;;
19509;SDS011;9896;42.486;26.506;2022-08-19T07:46:38;12.23;;;8.23;;
19509;SDS011;9896;42.486;26.506;2022-08-19T07:49:10;12.57;;;6.90;;
19509;SDS011;9896;42.486;26.506;2022-08-19T07:51:42;10.43;;;7.25;;
19509;SDS011;9896;42.486;26.506;2022-08-19T07:54:10;10.45;;;7.25;;
19509;SDS011;9896;42.486;26.506;2022-08-19T07:56:36;11.05;;;7.10;;
19509;SDS011;9896;42.486;26.506;2022-08-19T07:59:02;9.57;;;6.45;;
19509;SDS011;9896;42.486;26.506;2022-08-19T08:01:28;11.23;;;6.57;;
19509;SDS011;9896;42.486;26.506;2022-08-19T08:03:55;10.98;;;7.15;;
19509;SDS011;9896;42.486;26.506;2022-08-19T08:06:41;9.18;;;6.80;;
19509;SDS011;9896;42.486;26.506;2022-08-19T08:09:28;13.18;;;7.13;;
19509;SDS011;9896;42.486;26.506;2022-08-19T08:12:04;9.35;;;7.07;;
19509;SDS011;9896;42.486;26.506;2022-08-19T08:14:34;14.10;;;7.70;;
19509;SDS011;9896;42.486;26.506;2022-08-19T08:17:06;13.80;;;7.47;;
19509;SDS011;9896;42.486;26.506;2022-08-19T08:19:33;12.35;;;7.07;;
19509;SDS011;9896;42.486;26.506;2022-08-19T08:22:00;12.00;;;6.93;;
19509;SDS011;9896;42.486;26.506;2022-08-19T08:24:28;15.50;;;6.88;;
19509;SDS011;9896;42.486;26.506;2022-08-19T08:26:59;7.90;;;6.90;;
19509;SDS011;9896;42.486;26.506;2022-08-19T08:29:29;10.00;;;6.97;;
19509;SDS011;9896;42.486;26.506;2022-08-19T08:31:55;10.65;;;6.88;;
19509;SDS011;9896;42.486;26.506;2022-08-19T08:34:22;11.73;;;7.13;;
19509;SDS011;9896;42.486;26.506;2022-08-19T08:36:48;9.05;;;6.93;;
19509;SDS011;9896;42.486;26.506;2022-08-19T08:39:17;10.25;;;6.82;;
19509;SDS011;9896;42.486;26.506;2022-08-19T08:44:15;14.02;;;7.95;;
19509;SDS011;9896;42.486;26.506;2022-08-19T08:46:53;9.40;;;6.53;;
19509;SDS011;9896;42.486;26.506;2022-08-19T08:52:21;8.20;;;6.20;;
19509;SDS011;9896;42.486;26.506;2022-08-19T08:54:50;7.93;;;6.45;;
19509;SDS011;9896;42.486;26.506;2022-08-19T08:57:23;9.48;;;7.00;;
19509;SDS011;9896;42.486;26.506;2022-08-19T09:00:18;8.52;;;6.75;;
19509;SDS011;9896;42.486;26.506;2022-08-19T09:02:48;10.63;;;6.47;;
19509;SDS011;9896;42.486;26.506;2022-08-19T09:05:13;6.88;;;6.00;;
19509;SDS011;9896;42.486;26.506;2022-08-19T09:07:46;10.63;;;6.53;;
19509;SDS011;9896;42.486;26.506;2022-08-19T09:15:57;9.55;;;6.05;;
19509;SDS011;9896;42.486;26.506;2022-08-19T09:18:42;9.88;;;7.07;;
19509;SDS011;9896;42.486;26.506;2022-08-19T09:21:11;10.95;;;7.00;;
19509;SDS011;9896;42.486;26.506;2022-08-19T09:23:38;8.57;;;6.85;;
19509;SDS011;9896;42.486;26.506;2022-08-19T09:26:08;9.98;;;6.53;;
19509;SDS011;9896;42.486;26.506;2022-08-19T09:28:41;9.13;;;6.53;;
19509;SDS011;9896;42.486;26.506;2022-08-19T09:31:12;14.98;;;6.45;;
19509;SDS011;9896;42.486;26.506;2022-08-19T09:33:41;10.15;;;6.03;;
19509;SDS011;9896;42.486;26.506;2022-08-19T09:36:09;12.43;;;6.22;;
19509;SDS011;9896;42.486;26.506;2022-08-19T09:38:38;8.27;;;5.70;;
19509;SDS011;9896;42.486;26.506;2022-08-19T09:41:06;10.90;;;6.18;;
19509;SDS011;9896;42.486;26.506;2022-08-19T09:43:33;8.70;;;7.07;;
19509;SDS011;9896;42.486;26.506;2022-08-19T09:46:02;9.18;;;5.95;;
19509;SDS011;9896;42.486;26.506;2022-08-19T09:48:31;9.57;;;6.90;;
19509;SDS011;9896;42.486;26.506;2022-08-19T09:51:04;9.30;;;5.28;;
19509;SDS011;9896;42.486;26.506;2022-08-19T09:53:33;12.00;;;6.20;;
19509;SDS011;9896;42.486;26.506;2022-08-19T09:56:00;10.75;;;5.90;;
19509;SDS011;9896;42.486;26.506;2022-08-19T09:58:26;8.65;;;6.10;;
19509;SDS011;9896;42.486;26.506;2022-08-19T10:00:55;11.60;;;6.18;;
19509;SDS011;9896;42.486;26.506;2022-08-19T10:03:23;12.32;;;6.22;;
19509;SDS011;9896;42.486;26.506;2022-08-19T10:05:49;9.63;;;6.03;;
19509;SDS011;9896;42.486;26.506;2022-08-19T10:08:17;9.85;;;6.10;;
19509;SDS011;9896;42.486;26.506;2022-08-19T10:10:54;7.05;;;5.40;;
19509;SDS011;9896;42.486;26.506;2022-08-19T10:13:22;14.15;;;5.82;;
19509;SDS011;9896;42.486;26.506;2022-08-19T10:15:51;9.32;;;5.82;;
19509;SDS011;9896;42.486;26.506;2022-08-19T10:18:18;9.25;;;5.93;;
19509;SDS011;9896;42.486;26.506;2022-08-19T10:20:45;8.23;;;5.70;;
19509;SDS011;9896;42.486;26.506;2022-08-19T10:23:12;8.95;;;5.90;;
19509;SDS011;9896;42.486;26.506;2022-08-19T10:25:38;11.18;;;6.05;;
19509;SDS011;9896;42.486;26.506;2022-08-19T10:28:04;15.18;;;6.10;;
19509;SDS011;9896;42.486;26.506;2022-08-19T10:30:31;9.10;;;5.70;;
19509;SDS011;9896;42.486;26.506;2022-08-19T10:32:56;9.43;;;6.10;;
19509;SDS011;9896;42.486;26.506;2022-08-19T10:35:22;9.90;;;5.88;;
19509;SDS011;9896;42.486;26.506;2022-08-19T10:37:48;6.68;;;5.22;;
19509;SDS011;9896;42.486;26.506;2022-08-19T10:40:14;8.20;;;6.03;;
19509;SDS011;9896;42.486;26.506;2022-08-19T10:42:39;14.10;;;6.50;;
19509;SDS011;9896;42.486;26.506;2022-08-19T10:45:05;13.25;;;6.45;;
19509;SDS011;9896;42.486;26.506;2022-08-19T10:47:32;7.65;;;5.63;;
19509;SDS011;9896;42.486;26.506;2022-08-19T10:49:58;9.75;;;5.57;;
19509;SDS011;9896;42.486;26.506;2022-08-19T10:52:44;11.80;;;5.75;;
19509;SDS011;9896;42.486;26.506;2022-08-19T10:55:11;9.43;;;5.07;;
19509;SDS011;9896;42.486;26.506;2022-08-19T10:57:56;12.70;;;7.68;;
19509;SDS011;9896;42.486;26.506;2022-08-19T11:00:22;38.10;;;20.20;;
19509;SDS011;9896;42.486;26.506;2022-08-19T11:02:48;11.32;;;8.07;;
19509;SDS011;9896;42.486;26.506;2022-08-19T11:05:14;6.60;;;5.22;;
19509;SDS011;9896;42.486;26.506;2022-08-19T11:07:40;10.25;;;6.57;;
19509;SDS011;9896;42.486;26.506;2022-08-19T11:10:08;9.60;;;5.78;;
19509;SDS011;9896;42.486;26.506;2022-08-19T11:12:36;13.63;;;5.75;;
19509;SDS011;9896;42.486;26.506;2022-08-19T11:15:04;11.40;;;6.40;;
19509;SDS011;9896;42.486;26.506;2022-08-19T11:17:32;13.98;;;5.72;;
19509;SDS011;9896;42.486;26.506;2022-08-19T11:19:58;14.20;;;6.07;;
19509;SDS011;9896;42.486;26.506;2022-08-19T11:22:27;9.43;;;5.88;;
19509;SDS011;9896;42.486;26.506;2022-08-19T11:24:52;13.10;;;6.38;;
19509;SDS011;9896;42.486;26.506;2022-08-19T11:27:18;15.15;;;5.20;;
19509;SDS011;9896;42.486;26.506;2022-08-19T11:29:43;11.57;;;5.93;;
19509;SDS011;9896;42.486;26.506;2022-08-19T11:32:09;12.65;;;6.50;;
19509;SDS011;9896;42.486;26.506;2022-08-19T11:34:35;9.60;;;5.78;;
19509;SDS011;9896;42.486;26.506;2022-08-19T11:37:01;11.32;;;6.43;;
19509;SDS011;9896;42.486;26.506;2022-08-19T11:39:29;11.18;;;5.28;;
19509;SDS011;9896;42.486;26.506;2022-08-19T11:41:59;8.10;;;5.28;;
19509;SDS011;9896;42.486;26.506;2022-08-19T11:44:27;9.73;;;5.63;;
19509;SDS011;9896;42.486;26.506;2022-08-19T11:46:55;9.02;;;5.50;;
19509;SDS011;9896;42.486;26.506;2022-08-19T11:49:21;9.43;;;6.15;;
19509;SDS011;9896;42.486;26.506;2022-08-19T11:51:47;10.10;;;6.07;;
19509;SDS011;9896;42.486;26.506;2022-08-19T11:54:15;12.57;;;5.18;;
19509;SDS011;9896;42.486;26.506;2022-08-19T11:56:42;11.43;;;5.88;;
19509;SDS011;9896;42.486;26.506;2022-08-19T11:59:09;7.38;;;5.38;;
19509;SDS011;9896;42.486;26.506;2022-08-19T12:01:35;8.27;;;5.07;;
19509;SDS011;9896;42.486;26.506;2022-08-19T12:04:01;7.07;;;5.25;;
19509;SDS011;9896;42.486;26.506;2022-08-19T12:06:30;12.77;;;5.72;;
19509;SDS011;9896;42.486;26.506;2022-08-19T12:08:59;10.70;;;5.95;;
19509;SDS011;9896;42.486;26.506;2022-08-19T12:11:28;9.13;;;5.70;;
19509;SDS011;9896;42.486;26.506;2022-08-19T12:13:55;10.95;;;6.00;;
19509;SDS011;9896;42.486;26.506;2022-08-19T12:16:22;9.63;;;6.05;;
19509;SDS011;9896;42.486;26.506;2022-08-19T12:18:49;7.25;;;5.65;;
19509;SDS011;9896;42.486;26.506;2022-08-19T12:21:20;10.15;;;5.88;;
19509;SDS011;9896;42.486;26.506;2022-08-19T12:23:53;11.80;;;6.20;;
19509;SDS011;9896;42.486;26.506;2022-08-19T12:26:21;12.00;;;5.85;;
19509;SDS011;9896;42.486;26.506;2022-08-19T12:28:47;9.07;;;5.60;;
19509;SDS011;9896;42.486;26.506;2022-08-19T12:31:16;9.32;;;5.63;;
19509;SDS011;9896;42.486;26.506;2022-08-19T12:33:42;11.40;;;5.95;;
19509;SDS011;9896;42.486;26.506;2022-08-19T12:36:09;7.63;;;5.57;;
19509;SDS011;9896;42.486;26.506;2022-08-19T12:38:37;9.55;;;5.72;;
19509;SDS011;9896;42.486;26.506;2022-08-19T12:41:03;10.18;;;5.93;;
19509;SDS011;9896;42.486;26.506;2022-08-19T12:43:31;7.18;;;5.38;;
19509;SDS011;9896;42.486;26.506;2022-08-19T12:45:57;7.32;;;5.35;;
19509;SDS011;9896;42.486;26.506;2022-08-19T12:48:23;9.60;;;5.65;;
19509;SDS011;9896;42.486;26.506;2022-08-19T12:50:48;8.15;;;5.63;;
19509;SDS011;9896;42.486;26.506;2022-08-19T12:53:14;14.77;;;5.85;;
19509;SDS011;9896;42.486;26.506;2022-08-19T12:55:40;22.48;;;6.65;;
19509;SDS011;9896;42.486;26.506;2022-08-19T12:58:07;10.25;;;5.55;;
19509;SDS011;9896;42.486;26.506;2022-08-19T13:00:33;9.30;;;5.25;;
19509;SDS011;9896;42.486;26.506;2022-08-19T13:02:59;12.18;;;5.50;;
19509;SDS011;9896;42.486;26.506;2022-08-19T13:05:27;9.80;;;5.50;;
19509;SDS011;9896;42.486;26.506;2022-08-19T13:07:55;9.55;;;5.45;;
19509;SDS011;9896;42.486;26.506;2022-08-19T13:10:23;11.60;;;5.43;;
19509;SDS011;9896;42.486;26.506;2022-08-19T13:12:53;13.90;;;6.20;;
19509;SDS011;9896;42.486;26.506;2022-08-19T13:15:19;8.73;;;5.38;;
19509;SDS011;9896;42.486;26.506;2022-08-19T13:17:47;9.35;;;5.88;;
19509;SDS011;9896;42.486;26.506;2022-08-19T13:20:15;9.52;;;5.22;;
19509;SDS011;9896;42.486;26.506;2022-08-19T13:22:41;9.60;;;5.43;;
19509;SDS011;9896;42.486;26.506;2022-08-19T13:25:07;9.43;;;5.15;;
19509;SDS011;9896;42.486;26.506;2022-08-19T13:27:33;11.20;;;5.60;;
19509;SDS011;9896;42.486;26.506;2022-08-19T13:29:59;12.00;;;5.25;;
19509;SDS011;9896;42.486;26.506;2022-08-19T13:32:43;13.00;;;5.18;;
19509;SDS011;9896;42.486;26.506;2022-08-19T13:35:27;19.95;;;5.15;;
19509;SDS011;9896;42.486;26.506;2022-08-19T13:37:53;6.32;;;5.10;;
19509;SDS011;9896;42.486;26.506;2022-08-19T13:40:20;9.75;;;5.30;;
19509;SDS011;9896;42.486;26.506;2022-08-19T13:42:49;5.75;;;5.05;;
19509;SDS011;9896;42.486;26.506;2022-08-19T13:45:18;8.10;;;5.40;;
19509;SDS011;9896;42.486;26.506;2022-08-19T13:47:48;17.38;;;7.35;;
19509;SDS011;9896;42.486;26.506;2022-08-19T13:50:16;11.52;;;5.60;;
19509;SDS011;9896;42.486;26.506;2022-08-19T13:52:43;13.15;;;5.10;;
19509;SDS011;9896;42.486;26.506;2022-08-19T13:55:09;6.63;;;5.40;;
19509;SDS011;9896;42.486;26.506;2022-08-19T13:57:36;10.70;;;5.28;;
19509;SDS011;9896;42.486;26.506;2022-08-19T14:00:13;9.10;;;5.82;;
19509;SDS011;9896;42.486;26.506;2022-08-19T14:02:43;10.30;;;5.40;;
19509;SDS011;9896;42.486;26.506;2022-08-19T14:05:22;10.85;;;5.25;;
19509;SDS011;9896;42.486;26.506;2022-08-19T14:07:49;8.88;;;6.20;;
19509;SDS011;9896;42.486;26.506;2022-08-19T14:10:18;19.50;;;6.75;;
19509;SDS011;9896;42.486;26.506;2022-08-19T14:12:46;12.23;;;5.78;;
19509;SDS011;9896;42.486;26.506;2022-08-19T14:15:13;9.68;;;5.68;;
19509;SDS011;9896;42.486;26.506;2022-08-19T14:17:43;11.10;;;6.20;;
19509;SDS011;9896;42.486;26.506;2022-08-19T14:20:12;11.52;;;5.60;;
19509;SDS011;9896;42.486;26.506;2022-08-19T14:22:40;10.82;;;5.30;;
19509;SDS011;9896;42.486;26.506;2022-08-19T14:25:10;11.55;;;5.75;;
19509;SDS011;9896;42.486;26.506;2022-08-19T14:27:38;7.90;;;5.55;;
19509;SDS011;9896;42.486;26.506;2022-08-19T14:30:06;10.52;;;5.60;;
19509;SDS011;9896;42.486;26.506;2022-08-19T14:32:34;12.68;;;5.68;;
19509;SDS011;9896;42.486;26.506;2022-08-19T14:35:00;12.25;;;4.95;;
19509;SDS011;9896;42.486;26.506;2022-08-19T14:37:29;10.70;;;5.35;;
19509;SDS011;9896;42.486;26.506;2022-08-19T14:39:55;8.57;;;5.18;;
19509;SDS011;9896;42.486;26.506;2022-08-19T14:42:20;10.32;;;5.88;;
19509;SDS011;9896;42.486;26.506;2022-08-19T14:44:46;12.35;;;5.82;;
19509;SDS011;9896;42.486;26.506;2022-08-19T14:47:12;7.65;;;4.88;;
19509;SDS011;9896;42.486;26.506;2022-08-19T14:49:37;11.45;;;5.10;;